Hovedside
METAR-TAF:

METAR-TAF

Lufthavner :

Heidrunfeltet

Heidrun, Norge

breddegrad: 65-19-30N, lengdegrad: 007-19-36E, høyde over havet: 0 m

Gjeldene værobservasjon

Denne rapporten ble laget for 44 minutter siden, klokken 14:50 UTC
Vind 33 kt fra Sørvest
Temperatur 8°C
Luftfuktighet 93%
Trykk 1019 hPa
Sikt: 2000 m
Brutte skyer i en høyde av 400 ft
lett regn, dis

METAR: ENHE 201450Z 23033KT 2000 -RA BR BKN004 08/07 Q1019 W///S5

Tid: 17:34 (15:34 UTC)

Varsel

Denne rapporten ble laget for 1 time og 34 minutter siden, klokken 14:00 UTC
Varsel gyldig fra 20. klokken 15 UTC til 20. klokken 24 UTC
Vind 30 kt fra Sørvest
Sikt: 8000 m
Spredte skyer i en høyde av 1000 ft
Brutte skyer i en høyde av 2000 ft
Midlertidig
fra 20. klokken 15 UTC til 20. klokken 24 UTC
Sikt: 4000 m
Brutte skyer i en høyde av 800 ft
lett regn, dis

TAF: ENHE 201400Z 2015/2024 23030KT 8000 SCT010 BKN020 TEMPO 2015/2024 4000 -RA BR BKN008

Værobservasjoner og værvarsel for over 4000 flyplasser (METAR- og TAF-rapporter).

Tilgjengelige stasjoner er representert av de røde og gule prikkene på kartet.

Hold musepekeren over prikken for å se navnet på stasjonen.

Klikk så for å se værobservasjoner og -varsler.

For å forandre kartet kan du klikke på den grønne knappen med svart kryss for å zoome inn, på den grønne knappen med strek for å zoome ut, eller på de grønne pilene for å se tilstøtende kart.


METAR-TAF: